TimeEST,TemperatureF,Dew PointF,Humidity,Sea Level PressureIn,VisibilityMPH,Wind Direction,Wind SpeedMPH,Gust SpeedMPH,PrecipitationIn,Events,Conditions,WindDirDegrees,DateUTC
12:15 AM,55.4,51.8,88,29.72,7.0,NW,3.5,-,N/A,,Mostly Cloudy,320,2013-02-27 05:15:00
12:35 AM,55.4,51.8,88,29.73,7.0,NNW,4.6,-,N/A,,Mostly Cloudy,340,2013-02-27 05:35:00
12:55 AM,55.4,51.8,88,29.74,7.0,NNW,4.6,-,N/A,,Overcast,340,2013-02-27 05:55:00
1:15 AM,53.6,51.8,94,29.75,7.0,NW,4.6,-,N/A,,Overcast,320,2013-02-27 06:15:00
1:35 AM,53.6,50.0,88,29.77,7.0,NW,3.5,-,N/A,,Overcast,310,2013-02-27 06:35:00
2:15 AM,53.6,50.0,88,29.77,7.0,WNW,5.8,-,N/A,,Mostly Cloudy,300,2013-02-27 07:15:00
2:35 AM,53.6,48.2,82,29.77,10.0,NW,4.6,-,N/A,,Overcast,310,2013-02-27 07:35:00
2:55 AM,53.6,48.2,82,29.77,7.0,Calm,Calm,-,N/A,,Mostly Cloudy,0,2013-02-27 07:55:00
3:15 AM,51.8,46.4,82,29.77,10.0,WNW,4.6,-,N/A,,Scattered Clouds,300,2013-02-27 08:15:00
3:35 AM,51.8,42.8,71,29.78,10.0,West,6.9,-,N/A,,Clear,260,2013-02-27 08:35:00
3:55 AM,51.8,42.8,71,29.79,10.0,WSW,3.5,-,N/A,,Clear,240,2013-02-27 08:55:00
4:15 AM,50.0,42.8,76,29.80,10.0,West,5.8,-,N/A,,Clear,260,2013-02-27 09:15:00
4:35 AM,50.0,41.0,71,29.80,7.0,West,4.6,-,N/A,,Clear,260,2013-02-27 09:35:00
4:55 AM,50.0,41.0,71,29.81,10.0,West,4.6,-,N/A,,Clear,260,2013-02-27 09:55:00
5:15 AM,50.0,41.0,71,29.81,10.0,WSW,4.6,-,N/A,,Clear,250,2013-02-27 10:15:00
5:35 AM,50.0,39.2,66,29.82,7.0,WSW,5.8,-,N/A,,Clear,240,2013-02-27 10:35:00
5:55 AM,48.2,39.2,71,29.83,10.0,WSW,6.9,-,N/A,,Clear,240,2013-02-27 10:55:00
6:15 AM,48.2,39.2,71,29.83,10.0,WSW,4.6,-,N/A,,Clear,250,2013-02-27 11:15:00
6:35 AM,48.2,39.2,71,29.85,10.0,West,4.6,-,N/A,,Clear,260,2013-02-27 11:35:00
7:15 AM,48.2,37.4,66,29.85,10.0,West,3.5,-,N/A,,Clear,260,2013-02-27 12:15:00
7:35 AM,48.2,37.4,66,29.86,7.0,WSW,4.6,-,N/A,,Clear,250,2013-02-27 12:35:00
7:55 AM,48.2,37.4,66,29.87,7.0,Calm,Calm,-,N/A,,Clear,0,2013-02-27 12:55:00
8:15 AM,48.2,39.2,71,29.88,7.0,Calm,Calm,-,N/A,,Clear,0,2013-02-27 13:15:00
8:35 AM,50.0,37.4,62,29.89,7.0,West,4.6,-,N/A,,Clear,270,2013-02-27 13:35:00
8:55 AM,50.0,37.4,62,29.89,10.0,West,4.6,-,N/A,,Clear,270,2013-02-27 13:55:00
9:15 AM,50.0,37.4,62,29.89,5.0,West,5.8,-,N/A,,Haze,280,2013-02-27 14:15:00
9:35 AM,51.8,37.4,58,29.90,10.0,West,4.6,-,N/A,,Clear,280,2013-02-27 14:35:00
10:15 AM,53.6,37.4,54,29.90,7.0,WSW,9.2,-,N/A,,Clear,250,2013-02-27 15:15:00
10:35 AM,53.6,37.4,54,29.88,7.0,West,6.9,-,N/A,,Clear,260,2013-02-27 15:35:00
10:55 AM,53.6,37.4,54,29.89,7.0,WSW,6.9,-,N/A,,Clear,240,2013-02-27 15:55:00
11:15 AM,55.4,37.4,51,29.88,10.0,West,5.8,-,N/A,,Clear,260,2013-02-27 16:15:00
11:55 AM,55.4,37.4,51,29.87,7.0,WSW,8.1,-,N/A,,Clear,240,2013-02-27 16:55:00
12:15 PM,55.4,37.4,51,29.87,7.0,WSW,4.6,-,N/A,,Clear,250,2013-02-27 17:15:00
12:35 PM,55.4,37.4,51,29.87,10.0,WSW,6.9,-,N/A,,Clear,250,2013-02-27 17:35:00
12:55 PM,57.2,39.2,51,29.86,7.0,WSW,9.2,-,N/A,,Clear,240,2013-02-27 17:55:00
1:15 PM,57.2,39.2,51,29.85,10.0,WSW,4.6,-,N/A,,Clear,240,2013-02-27 18:15:00
1:35 PM,57.2,39.2,51,29.85,10.0,SW,11.5,-,N/A,,Clear,230,2013-02-27 18:35:00
2:15 PM,59.0,39.2,48,29.84,10.0,WSW,6.9,-,N/A,,Clear,250,2013-02-27 19:15:00
2:35 PM,60.8,41.0,48,29.83,7.0,SW,8.1,-,N/A,,Clear,230,2013-02-27 19:35:00
2:55 PM,60.8,39.2,45,29.82,10.0,West,4.6,-,N/A,,Clear,260,2013-02-27 19:55:00
3:15 PM,60.8,41.0,48,29.82,7.0,West,5.8,-,N/A,,Clear,260,2013-02-27 20:15:00
3:35 PM,60.8,41.0,48,29.82,5.0,West,5.8,-,N/A,,Haze,260,2013-02-27 20:35:00
3:55 PM,60.8,39.2,45,29.81,7.0,West,4.6,-,N/A,,Clear,270,2013-02-27 20:55:00
4:15 PM,60.8,39.2,45,29.81,10.0,WSW,8.1,-,N/A,,Clear,240,2013-02-27 21:15:00
4:35 PM,60.8,39.2,45,29.81,10.0,West,5.8,-,N/A,,Clear,260,2013-02-27 21:35:00
4:55 PM,60.8,41.0,48,29.81,7.0,WSW,5.8,-,N/A,,Clear,240,2013-02-27 21:55:00
5:15 PM,59.0,42.8,55,29.81,7.0,SW,8.1,-,N/A,,Clear,230,2013-02-27 22:15:00
5:35 PM,57.2,42.8,59,29.82,10.0,WSW,8.1,-,N/A,,Clear,240,2013-02-27 22:35:00
6:15 PM,55.4,42.8,63,29.82,10.0,SSW,9.2,-,N/A,,Clear,210,2013-02-27 23:15:00
6:35 PM,55.4,42.8,63,29.82,10.0,SW,6.9,-,N/A,,Clear,220,2013-02-27 23:35:00
6:55 PM,53.6,42.8,67,29.83,10.0,SW,5.8,-,N/A,,Clear,230,2013-02-27 23:55:00
7:35 PM,53.6,42.8,67,29.83,10.0,SW,5.8,-,N/A,,Clear,230,2013-02-28 00:35:00
7:55 PM,53.6,42.8,67,29.83,10.0,SW,5.8,-,N/A,,Clear,230,2013-02-28 00:55:00
8:15 PM,51.8,42.8,71,29.83,10.0,SW,6.9,-,N/A,,Clear,230,2013-02-28 01:15:00
8:35 PM,51.8,42.8,71,29.84,10.0,SW,8.1,-,N/A,,Clear,230,2013-02-28 01:35:00
9:15 PM,51.8,42.8,71,29.83,10.0,SW,8.1,-,N/A,,Clear,230,2013-02-28 02:15:00
9:35 PM,51.8,41.0,67,29.84,10.0,SW,9.2,-,N/A,,Clear,230,2013-02-28 02:35:00
9:55 PM,51.8,41.0,67,29.84,10.0,SW,6.9,-,N/A,,Clear,230,2013-02-28 02:55:00
10:15 PM,51.8,41.0,67,29.85,10.0,SW,9.2,-,N/A,,Clear,230,2013-02-28 03:15:00
10:35 PM,50.0,41.0,71,29.85,10.0,WSW,9.2,-,N/A,,Clear,240,2013-02-28 03:35:00
10:55 PM,50.0,41.0,71,29.84,10.0,SW,8.1,-,N/A,,Clear,230,2013-02-28 03:55:00
11:15 PM,50.0,41.0,71,29.85,10.0,WSW,10.4,-,N/A,,Clear,240,2013-02-28 04:15:00